Time;durP1;ratioP1;P1;durP2;ratioP2;P2;SDS_P1;SDS_P2;PMS_P1;PMS_P2;Temp;Humidity;BMP_temperature;BMP_pressure;BME280_temperature;BME280_humidity;BME280_pressure;Samples;Min_cycle;Max_cycle;Signal;HPM_P1;HPM_P2
2021/01/16 00:01:04;;;;;;;;;;;;;;;-4.51;100.00;101839.75;5115028;28;19923;-74
2021/01/16 00:03:29;;;;;;;;;;;;;;;-4.47;100.00;101838.00;5114812;28;19974;-74
2021/01/16 00:05:56;;;;;;;;;;;;;;;-4.45;100.00;101839.75;5114561;28;20601;-74
2021/01/16 00:08:22;;;;;;;;;;;;;;;-4.43;100.00;101835.31;5114713;28;19982;-75
2021/01/16 00:10:49;;;;;;;;;;;;;;;-4.40;100.00;101837.09;5114232;28;20023;-74
2021/01/16 00:13:16;;;;;;;;;;;;;;;-4.38;100.00;101838.00;5114515;28;19924;-74
2021/01/16 00:15:43;;;;;;;;;;;;;;;-4.39;100.00;101833.56;5114573;28;19959;-74
2021/01/16 00:18:10;;;;;;;;;;;;;;;-4.42;100.00;101829.16;5114638;27;19923;-75
2021/01/16 00:20:36;;;;;;;;;;;;;;;-4.39;100.00;101823.81;5114671;28;20014;-74
2021/01/16 00:23:02;;;;;;;;;;;;;;;-4.37;100.00;101824.72;5114554;28;20030;-74
2021/01/16 00:25:28;;;;;;;;;;;;;;;-4.32;100.00;101826.47;5114306;28;19923;-75
2021/01/16 00:27:54;;;;;;;;;;;;;;;-4.31;100.00;101829.13;5114254;28;20331;-75
2021/01/16 00:30:22;;;;;;;;;;;;;;;-4.31;100.00;101831.78;5114345;28;19924;-75
2021/01/16 00:32:48;;;;;;;;;;;;;;;-4.28;100.00;101828.25;5114599;28;20032;-75
2021/01/16 00:35:15;;;;;;;;;;;;;;;-4.26;100.00;101827.34;5114264;28;20022;-75
2021/01/16 00:37:43;;;;;;;;;;;;;;;-4.23;100.00;101829.13;5114221;28;19955;-75
2021/01/16 00:40:10;;;;;;;;;;;;;;;-4.22;100.00;101828.25;5114190;28;20022;-74
2021/01/16 00:42:38;;;;;;;;;;;;;;;-4.19;100.00;101825.56;5114115;28;20018;-75
2021/01/16 00:45:04;;;;;;;;;;;;;;;-4.15;100.00;101827.31;5112917;28;20305;-75
2021/01/16 00:47:30;;;;;;;;;;;;;;;-4.12;100.00;101829.09;5114058;28;20012;-75
2021/01/16 00:49:57;;;;;;;;;;;;;;;-4.09;100.00;101829.06;5114143;28;19924;-75
2021/01/16 00:52:23;;;;;;;;;;;;;;;-4.07;100.00;101816.69;5112856;28;19942;-75
2021/01/16 00:54:49;;;;;;;;;;;;;;;-4.05;100.00;101814.91;5112949;28;19924;-74
2021/01/16 00:57:15;;;;;;;;;;;;;;;-4.04;100.00;101811.38;5112649;28;20429;-74
2021/01/16 00:59:41;;;;;;;;;;;;;;;-4.01;100.00;101815.78;5113955;28;19973;-75
2021/01/16 01:02:08;;;;;;;;;;;;;;;-3.97;100.00;101823.72;5112687;28;19927;-75
2021/01/16 01:04:34;;;;;;;;;;;;;;;-3.99;100.00;101820.19;5113690;28;19924;-75
2021/01/16 01:07:00;;;;;;;;;;;;;;;-3.97;100.00;101818.41;5113483;28;19930;-75
2021/01/16 01:09:27;;;;;;;;;;;;;;;-3.95;100.00;101821.09;5113659;28;19924;-75
2021/01/16 01:11:52;;;;;;;;;;;;;;;-3.95;100.00;101819.31;5113634;28;20427;-75
2021/01/16 01:14:18;;;;;;;;;;;;;;;-3.91;100.00;101814.88;5113505;28;19924;-74
2021/01/16 01:16:44;;;;;;;;;;;;;;;-3.90;100.00;101817.53;5113451;28;19924;-75
2021/01/16 01:19:10;;;;;;;;;;;;;;;-3.88;100.00;101807.75;5113319;28;19924;-75
2021/01/16 01:21:36;;;;;;;;;;;;;;;-3.85;100.00;101809.53;5113052;28;19977;-75
2021/01/16 01:24:02;;;;;;;;;;;;;;;-3.83;100.00;101815.72;5112816;28;20435;-75
2021/01/16 01:26:28;;;;;;;;;;;;;;;-3.81;100.00;101810.41;5113001;28;20343;-74
2021/01/16 01:28:54;;;;;;;;;;;;;;;-3.81;100.00;101808.63;5113163;28;19923;-74
2021/01/16 01:31:20;;;;;;;;;;;;;;;-3.80;100.00;101810.41;5113113;28;20350;-74
2021/01/16 01:33:45;;;;;;;;;;;;;;;-3.79;100.00;101808.63;5113058;28;19924;-75
2021/01/16 01:36:11;;;;;;;;;;;;;;;-3.80;100.00;101805.09;5112436;28;19980;-75
2021/01/16 01:38:37;;;;;;;;;;;;;;;-3.81;100.00;101799.78;5112911;28;20373;-74
2021/01/16 01:41:04;;;;;;;;;;;;;;;-3.78;100.00;101799.78;5112664;28;20011;-75
2021/01/16 01:43:29;;;;;;;;;;;;;;;-3.77;100.00;101797.13;5112692;28;20010;-75
2021/01/16 01:45:55;;;;;;;;;;;;;;;-3.76;100.00;101795.34;5112695;28;19923;-75
2021/01/16 01:48:22;;;;;;;;;;;;;;;-3.78;100.00;101792.72;5112924;28;19971;-75
2021/01/16 01:50:48;;;;;;;;;;;;;;;-3.76;100.00;101800.66;5112792;28;19970;-74
2021/01/16 01:53:15;;;;;;;;;;;;;;;-3.73;100.00;101795.31;5112941;28;19924;-75
2021/01/16 01:55:43;;;;;;;;;;;;;;;-3.74;100.00;101805.06;5112258;28;19931;-75
2021/01/16 01:58:12;;;;;;;;;;;;;;;-3.71;100.00;101796.22;5112694;28;20006;-75
2021/01/16 02:00:38;;;;;;;;;;;;;;;-3.74;100.00;101788.25;5112587;28;20018;-75
2021/01/16 02:03:05;;;;;;;;;;;;;;;-3.73;100.00;101793.56;5112477;28;20057;-75
2021/01/16 02:05:31;;;;;;;;;;;;;;;-3.71;100.00;101790.91;5112453;28;19927;-75
2021/01/16 02:07:58;;;;;;;;;;;;;;;-3.73;100.00;101792.66;5112227;28;19992;-74
2021/01/16 02:10:24;;;;;;;;;;;;;;;-3.71;100.00;101788.25;5112211;28;19928;-74
2021/01/16 02:12:52;;;;;;;;;;;;;;;-3.71;100.00;101785.59;5112485;28;19931;-74
2021/01/16 02:15:31;;;;;;;;;;;;;;;-3.72;100.00;101784.69;5111155;28;19923;-75
2021/01/16 02:18:00;;;;;;;;;;;;;;;-3.72;100.00;101779.38;5112300;28;19930;-75
2021/01/16 02:20:27;;;;;;;;;;;;;;;-3.71;100.00;101794.44;5110952;28;19924;-74
2021/01/16 02:23:11;;;;;;;;;;;;;;;-3.72;100.00;101782.03;5111009;28;19923;-74
2021/01/16 02:25:44;;;;;;;;;;;;;;;-3.72;100.00;101783.81;5098264;28;20632;-75
2021/01/16 02:28:17;;;;;;;;;;;;;;;-3.72;100.00;101787.34;5111786;28;19932;-75
2021/01/16 02:30:45;;;;;;;;;;;;;;;-3.74;100.00;101770.56;5112344;28;20011;-75
2021/01/16 02:33:12;;;;;;;;;;;;;;;-3.75;100.00;101765.28;5111809;28;20453;-75
2021/01/16 02:35:40;;;;;;;;;;;;;;;-3.74;100.00;101773.22;5110523;28;20354;-74
2021/01/16 02:38:10;;;;;;;;;;;;;;;-3.72;100.00;101767.91;5112022;28;19923;-74
2021/01/16 02:40:39;;;;;;;;;;;;;;;-3.67;100.00;101784.69;5111795;28;20010;-75
2021/01/16 02:43:14;;;;;;;;;;;;;;;-3.70;100.00;101782.06;5111801;28;20027;-74
2021/01/16 02:45:42;;;;;;;;;;;;;;;-3.68;100.00;101769.66;5111592;28;19967;-75
2021/01/16 02:48:12;;;;;;;;;;;;;;;-3.66;100.00;101781.16;5111668;28;20384;-75
2021/01/16 02:50:40;;;;;;;;;;;;;;;-3.66;100.00;101773.19;5110662;28;19924;-75
2021/01/16 02:53:06;;;;;;;;;;;;;;;-3.67;100.00;101768.75;5111831;28;20453;-74
2021/01/16 02:55:32;;;;;;;;;;;;;;;-3.68;100.00;101767.00;5111642;28;19933;-74
2021/01/16 02:57:58;;;;;;;;;;;;;;;-3.70;100.00;101763.47;5111780;28;20022;-75
2021/01/16 03:00:24;;;;;;;;;;;;;;;-3.66;100.00;101770.53;5111740;28;19959;-75
2021/01/16 03:02:51;;;;;;;;;;;;;;;-3.71;100.00;101765.22;5111605;28;19924;-74
2021/01/16 03:05:17;;;;;;;;;;;;;;;-3.67;100.00;101765.22;5111397;28;20388;-75
2021/01/16 03:07:43;;;;;;;;;;;;;;;-3.66;100.00;101770.53;5111217;28;20343;-75
2021/01/16 03:10:10;;;;;;;;;;;;;;;-3.65;100.00;101772.28;5111650;28;19981;-75
2021/01/16 03:12:37;;;;;;;;;;;;;;;-3.66;100.00;101767.88;5111609;28;20010;-74
2021/01/16 03:15:05;;;;;;;;;;;;;;;-3.65;100.00;101766.97;5111688;28;20314;-75
2021/01/16 03:17:42;;;;;;;;;;;;;;;-3.68;100.00;101768.78;5111498;28;20416;-74
2021/01/16 03:20:10;;;;;;;;;;;;;;;-3.69;100.00;101759.91;5111708;28;20014;-75
2021/01/16 03:22:36;;;;;;;;;;;;;;;-3.70;100.00;101764.34;5110230;28;20014;-75
2021/01/16 03:25:02;;;;;;;;;;;;;;;-3.66;100.00;101762.56;5110023;28;19951;-75
2021/01/16 03:27:27;;;;;;;;;;;;;;;-3.69;100.00;101765.22;5111389;28;19989;-75
2021/01/16 03:29:53;;;;;;;;;;;;;;;-3.65;100.00;101766.97;5111628;28;19976;-75
2021/01/16 03:32:20;;;;;;;;;;;;;;;-3.66;100.00;101765.22;5111466;28;19924;-75
2021/01/16 03:34:46;;;;;;;;;;;;;;;-3.66;100.00;101759.91;5111426;28;20356;-74
2021/01/16 03:37:13;;;;;;;;;;;;;;;-3.68;100.00;101756.38;5111250;28;19928;-75
2021/01/16 03:39:39;;;;;;;;;;;;;;;-3.66;100.00;101756.38;5111166;28;19956;-74
2021/01/16 03:42:06;;;;;;;;;;;;;;;-3.64;100.00;101759.91;5111408;28;19958;-74
2021/01/16 03:44:32;;;;;;;;;;;;;;;-3.64;100.00;101758.13;5110722;28;19958;-75
2021/01/16 03:46:58;;;;;;;;;;;;;;;-3.62;100.00;101751.03;5114294;28;20281;-75
2021/01/16 03:49:24;;;;;;;;;;;;;;;-3.62;100.00;101761.66;5115021;28;19963;-74
2021/01/16 03:51:50;;;;;;;;;;;;;;;-3.62;100.00;101755.44;5115034;28;19928;-75
2021/01/16 03:54:16;;;;;;;;;;;;;;;-3.66;100.00;101759.03;5115064;28;20018;-75
2021/01/16 03:56:42;;;;;;;;;;;;;;;-3.68;100.00;101756.38;5114834;28;20010;-75
2021/01/16 03:59:08;;;;;;;;;;;;;;;-3.69;100.00;101744.00;5114947;28;19930;-75
2021/01/16 04:01:34;;;;;;;;;;;;;;;-3.69;100.00;101749.28;5114896;28;19946;-75
2021/01/16 04:04:00;;;;;;;;;;;;;;;-3.66;100.00;101744.00;5114824;28;19950;-75
2021/01/16 04:06:26;;;;;;;;;;;;;;;-3.73;100.00;101737.84;5114648;28;19968;-75
2021/01/16 04:08:52;;;;;;;;;;;;;;;-3.67;100.00;101742.22;5113723;28;19978;-75
2021/01/16 04:11:18;;;;;;;;;;;;;;;-3.69;100.00;101738.69;5114894;28;19928;-75
2021/01/16 04:13:44;;;;;;;;;;;;;;;-3.65;100.00;101736.91;5114753;28;20024;-75
2021/01/16 04:16:10;;;;;;;;;;;;;;;-3.66;100.00;101733.38;5115150;28;19969;-75
2021/01/16 04:18:36;;;;;;;;;;;;;;;-3.64;100.00;101731.56;5114927;28;19928;-75
2021/01/16 04:21:02;;;;;;;;;;;;;;;-3.65;100.00;101732.47;5115018;28;19927;-75
2021/01/16 04:23:28;;;;;;;;;;;;;;;-3.66;100.00;101730.72;5114585;28;19930;-75
2021/01/16 04:25:54;;;;;;;;;;;;;;;-3.68;100.00;101736.94;5114843;28;19924;-75
2021/01/16 04:28:21;;;;;;;;;;;;;;;-3.68;100.00;101734.28;5113527;28;20452;-74
2021/01/16 04:30:47;;;;;;;;;;;;;;;-3.67;100.00;101731.59;5114277;28;19959;-74
2021/01/16 04:33:13;;;;;;;;;;;;;;;-3.68;100.00;101727.19;5114414;28;19924;-75
2021/01/16 04:35:39;;;;;;;;;;;;;;;-3.68;100.00;101728.97;5114055;28;20277;-73
2021/01/16 04:38:05;;;;;;;;;;;;;;;-3.68;100.00;101718.34;5114194;27;19955;-74
2021/01/16 04:40:31;;;;;;;;;;;;;;;-3.70;100.00;101726.31;5114135;28;19930;-75
2021/01/16 04:42:59;;;;;;;;;;;;;;;-3.68;100.00;101715.69;5112655;28;19988;-74
2021/01/16 04:45:25;;;;;;;;;;;;;;;-3.66;100.00;101717.44;5114074;28;19968;-74
2021/01/16 04:47:56;;;;;;;;;;;;;;;-3.64;100.00;101720.09;5113650;28;20002;-74
2021/01/16 04:50:26;;;;;;;;;;;;;;;-3.63;100.00;101713.91;5113863;28;19955;-74
2021/01/16 04:52:54;;;;;;;;;;;;;;;-3.64;100.00;101715.66;5112553;28;19969;-74
2021/01/16 04:55:20;;;;;;;;;;;;;;;-3.64;100.00;101717.44;5113689;28;19955;-75
2021/01/16 04:57:46;;;;;;;;;;;;;;;-3.63;100.00;101713.91;5113347;28;19955;-74
2021/01/16 05:00:13;;;;;;;;;;;;;;;-3.66;100.00;101712.16;5113832;28;20458;-74
2021/01/16 05:02:41;;;;;;;;;;;;;;;-3.63;100.00;101714.78;5113361;28;19977;-74
2021/01/16 05:05:08;;;;;;;;;;;;;;;-3.61;100.00;101710.31;5113599;28;20015;-74
2021/01/16 05:07:34;;;;;;;;;;;;;;;-3.59;100.00;101719.16;5113405;28;19949;-75
2021/01/16 05:10:01;;;;;;;;;;;;;;;-3.63;100.00;101704.16;5113344;28;19969;-74
2021/01/16 05:12:37;;;;;;;;;;;;;;;-3.63;100.00;101716.56;5113329;28;19959;-74
2021/01/16 05:15:04;;;;;;;;;;;;;;;-3.62;100.00;101719.19;5113432;28;20018;-74
2021/01/16 05:17:33;;;;;;;;;;;;;;;-3.65;100.00;101711.22;5113126;28;19963;-74
2021/01/16 05:20:00;;;;;;;;;;;;;;;-3.67;100.00;101701.50;5113051;28;19969;-75
2021/01/16 05:22:26;;;;;;;;;;;;;;;-3.63;100.00;101703.28;5113273;28;19931;-75
2021/01/16 05:24:52;;;;;;;;;;;;;;;-3.63;100.00;101705.94;5113110;28;20019;-74
2021/01/16 05:27:20;;;;;;;;;;;;;;;-3.61;100.00;101712.97;5113005;28;19924;-74
2021/01/16 05:29:46;;;;;;;;;;;;;;;-3.59;100.00;101707.69;5112995;28;19924;-74
2021/01/16 05:32:13;;;;;;;;;;;;;;;-3.55;100.00;101712.06;5111726;28;20381;-74
2021/01/16 05:34:39;;;;;;;;;;;;;;;-3.53;100.00;101708.50;5112801;28;19924;-75
2021/01/16 05:37:06;;;;;;;;;;;;;;;-3.53;100.00;101702.31;5112458;28;20400;-74
2021/01/16 05:39:32;;;;;;;;;;;;;;;-3.54;100.00;101706.75;5112357;28;19984;-75
2021/01/16 05:41:59;;;;;;;;;;;;;;;-3.55;100.00;101702.31;5112849;28;19923;-75
2021/01/16 05:44:26;;;;;;;;;;;;;;;-3.55;100.00;101699.66;5112771;28;19973;-74
2021/01/16 05:46:52;;;;;;;;;;;;;;;-3.55;100.00;101691.69;5105821;28;19927;-74
2021/01/16 05:49:18;;;;;;;;;;;;;;;-3.52;100.00;101680.19;5111398;28;19963;-74
2021/01/16 05:51:45;;;;;;;;;;;;;;;-3.53;100.00;101689.94;5111732;28;19936;-75
2021/01/16 05:54:12;;;;;;;;;;;;;;;-3.54;100.00;101685.50;5111903;28;20031;-74
2021/01/16 05:56:38;;;;;;;;;;;;;;;-3.49;100.00;101687.25;5094666;28;19958;-74
2021/01/16 05:59:05;;;;;;;;;;;;;;;-3.49;100.00;101687.25;5102362;28;19924;-74
2021/01/16 06:01:36;;;;;;;;;;;;;;;-3.47;100.00;101688.13;5092214;28;20005;-74
2021/01/16 06:04:03;;;;;;;;;;;;;;;-3.48;100.00;101689.00;5092171;28;19962;-74
2021/01/16 06:06:31;;;;;;;;;;;;;;;-3.48;100.00;101686.34;5091717;28;20015;-74
2021/01/16 06:08:57;;;;;;;;;;;;;;;-3.50;100.00;101686.38;5091206;28;19928;-74
2021/01/16 06:11:24;;;;;;;;;;;;;;;-3.50;100.00;101685.47;5091936;28;20446;-74
2021/01/16 06:13:51;;;;;;;;;;;;;;;-3.50;100.00;101670.44;5091993;28;19924;-73
2021/01/16 06:16:17;;;;;;;;;;;;;;;-3.50;100.00;101672.19;5091435;28;20382;-73
2021/01/16 06:18:45;;;;;;;;;;;;;;;-3.48;100.00;101671.28;5091778;28;19931;-73
2021/01/16 06:21:11;;;;;;;;;;;;;;;-3.47;100.00;101678.38;5092912;28;19924;-72
2021/01/16 06:23:41;;;;;;;;;;;;;;;-3.46;100.00;101676.59;5094004;28;19925;-74
2021/01/16 06:26:07;;;;;;;;;;;;;;;-3.48;100.00;101670.44;5107001;28;20014;-73
2021/01/16 06:28:49;;;;;;;;;;;;;;;-3.49;100.00;101666.00;5110430;28;19988;-73
2021/01/16 06:31:21;;;;;;;;;;;;;;;-3.50;100.00;101669.53;5111435;27;20014;-73
2021/01/16 06:33:54;;;;;;;;;;;;;;;-3.48;100.00;101663.34;5091132;28;20014;-73
2021/01/16 06:36:24;;;;;;;;;;;;;;;-3.49;100.00;101668.66;5090187;28;19924;-74
2021/01/16 06:38:55;;;;;;;;;;;;;;;-3.47;100.00;101667.75;5095236;28;20016;-74
2021/01/16 06:41:26;;;;;;;;;;;;;;;-3.45;100.00;101663.28;5102371;28;20018;-72
2021/01/16 06:43:53;;;;;;;;;;;;;;;-3.41;100.00;101664.16;5091759;28;20004;-73
2021/01/16 06:46:19;;;;;;;;;;;;;;;-3.40;100.00;101660.63;5091346;28;19931;-73
2021/01/16 06:48:45;;;;;;;;;;;;;;;-3.40;100.00;101661.50;5100735;28;20022;-73
2021/01/16 06:51:21;;;;;;;;;;;;;;;-3.39;100.00;101662.38;5098994;28;19924;-73
2021/01/16 06:53:47;;;;;;;;;;;;;;;-3.38;100.00;101662.38;5096798;28;19948;-73
2021/01/16 06:56:14;;;;;;;;;;;;;;;-3.36;100.00;101668.53;5111555;28;20347;-73
2021/01/16 06:58:42;;;;;;;;;;;;;;;-3.34;100.00;101663.25;5109680;28;19930;-73
2021/01/16 07:01:09;;;;;;;;;;;;;;;-3.34;100.00;101663.25;5091486;28;19959;-74
2021/01/16 07:03:39;;;;;;;;;;;;;;;-3.33;100.00;101661.44;5105455;28;19939;-73
2021/01/16 07:06:05;;;;;;;;;;;;;;;-3.30;100.00;101672.03;5111444;28;19923;-73
2021/01/16 07:08:32;;;;;;;;;;;;;;;-3.29;100.00;101668.50;5103163;28;19955;-74
2021/01/16 07:10:58;;;;;;;;;;;;;;;-3.31;100.00;101668.50;5111729;28;19931;-74
2021/01/16 07:13:24;;;;;;;;;;;;;;;-3.29;100.00;101666.72;5095942;28;19935;-75
2021/01/16 07:15:53;;;;;;;;;;;;;;;-3.27;100.00;101670.25;5092836;28;19960;-74
2021/01/16 07:18:20;;;;;;;;;;;;;;;-3.25;100.00;101667.56;5102481;28;19924;-74
2021/01/16 07:20:47;;;;;;;;;;;;;;;-3.27;100.00;101659.63;5113697;28;19949;-74
2021/01/16 07:23:14;;;;;;;;;;;;;;;-3.24;100.00;101661.38;5113841;28;19971;-75
2021/01/16 07:25:40;;;;;;;;;;;;;;;-3.22;100.00;101657.81;5105011;28;20385;-75
2021/01/16 07:28:06;;;;;;;;;;;;;;;-3.21;100.00;101662.22;5112701;28;19969;-75
2021/01/16 07:30:32;;;;;;;;;;;;;;;-3.16;100.00;101653.34;5094218;28;19935;-74
2021/01/16 07:33:01;;;;;;;;;;;;;;;-3.17;100.00;101652.44;5102482;28;20250;-74
2021/01/16 07:35:27;;;;;;;;;;;;;;;-3.18;100.00;101649.81;5115365;28;19924;-74
2021/01/16 07:37:54;;;;;;;;;;;;;;;-3.18;100.00;101648.00;5100547;28;19959;-73
2021/01/16 07:40:21;;;;;;;;;;;;;;;-3.14;100.00;101651.53;5096469;28;19962;-74
2021/01/16 07:42:48;;;;;;;;;;;;;;;-3.15;100.00;101647.09;5115392;28;20036;-74
2021/01/16 07:45:20;;;;;;;;;;;;;;;-3.15;100.00;101649.75;5110360;28;20641;-74
2021/01/16 07:47:50;;;;;;;;;;;;;;;-3.13;100.00;101646.19;5095945;28;19924;-74
2021/01/16 07:50:20;;;;;;;;;;;;;;;-3.15;100.00;101633.81;5094663;28;19971;-74
2021/01/16 07:52:53;;;;;;;;;;;;;;;-3.12;100.00;101650.63;5097816;28;19957;-74
2021/01/16 07:55:19;;;;;;;;;;;;;;;-3.12;100.00;101640.00;5114891;28;19923;-74
2021/01/16 07:57:48;;;;;;;;;;;;;;;-3.10;100.00;101643.53;5113343;28;20289;-74
2021/01/16 08:00:16;;;;;;;;;;;;;;;-3.10;100.00;101639.97;5103195;28;19924;-74
2021/01/16 08:02:53;;;;;;;;;;;;;;;-3.10;100.00;101650.59;5111499;28;20014;-74
2021/01/16 08:05:24;;;;;;;;;;;;;;;-3.09;100.00;101637.31;5094338;28;20342;-74
2021/01/16 08:08:06;;;;;;;;;;;;;;;-3.04;100.00;101634.63;5098380;28;19971;-74
2021/01/16 08:10:33;;;;;;;;;;;;;;;-3.04;100.00;101637.28;5114740;28;20022;-73
2021/01/16 08:13:01;;;;;;;;;;;;;;;-3.06;100.00;101639.06;5103898;28;20030;-73
2021/01/16 08:15:28;;;;;;;;;;;;;;;-2.99;100.00;101638.09;5094033;28;19935;-73
2021/01/16 08:17:54;;;;;;;;;;;;;;;-3.00;100.00;101639.00;5103068;28;20406;-73
2021/01/16 08:20:27;;;;;;;;;;;;;;;-2.97;100.00;101636.31;5101140;28;20445;-72
2021/01/16 08:22:55;;;;;;;;;;;;;;;-2.96;100.00;101634.53;5113191;28;19977;-73
2021/01/16 08:25:23;;;;;;;;;;;;;;;-2.96;100.00;101627.44;5103146;28;19946;-72
2021/01/16 08:27:50;;;;;;;;;;;;;;;-2.95;100.00;101626.53;5093744;28;20439;-73
2021/01/16 08:30:17;;;;;;;;;;;;;;;-2.97;100.00;101623.00;5102417;28;19978;-73
2021/01/16 08:32:53;;;;;;;;;;;;;;;-2.96;100.00;101615.94;5102137;28;19986;-73
2021/01/16 08:35:22;;;;;;;;;;;;;;;-2.92;100.00;101620.31;5107475;27;19973;-74
2021/01/16 08:37:49;;;;;;;;;;;;;;;-2.95;100.00;101615.03;5127181;27;20023;-74
2021/01/16 08:40:30;;;;;;;;;;;;;;;-2.91;100.00;101612.31;5108117;28;19950;-74
2021/01/16 08:42:57;;;;;;;;;;;;;;;-2.87;100.00;101614.06;5107188;28;19962;-74
2021/01/16 08:45:23;;;;;;;;;;;;;;;-2.82;100.00;101610.47;5112442;28;20607;-75
2021/01/16 08:47:49;;;;;;;;;;;;;;;-2.83;100.00;101614.91;5113742;28;19924;-74
2021/01/16 08:50:15;;;;;;;;;;;;;;;-2.82;100.00;101608.66;5100357;28;19931;-74
2021/01/16 08:52:42;;;;;;;;;;;;;;;-2.81;100.00;101606.91;5093641;28;19967;-74
2021/01/16 08:55:08;;;;;;;;;;;;;;;-2.78;100.00;101613.09;5113790;28;19924;-74
2021/01/16 08:57:34;;;;;;;;;;;;;;;-2.72;100.00;101609.47;5106519;28;20031;-74
2021/01/16 09:00:17;;;;;;;;;;;;;;;-2.74;100.00;101609.47;5102133;28;20330;-74
2021/01/16 09:02:44;;;;;;;;;;;;;;;-2.72;100.00;101610.34;5093152;28;19934;-72
2021/01/16 09:05:22;;;;;;;;;;;;;;;-2.67;100.00;101604.97;5102817;28;20456;-72
2021/01/16 09:07:48;;;;;;;;;;;;;;;-2.63;100.00;101598.72;5104828;28;19931;-73
2021/01/16 09:10:21;;;;;;;;;;;;;;;-2.56;100.00;101597.72;5097867;28;19927;-73
2021/01/16 09:12:47;;;;;;;;;;;;;;;-2.48;100.00;101599.44;5092606;28;19959;-73
2021/01/16 09:15:18;;;;;;;;;;;;;;;-2.39;100.00;101597.50;5094403;28;19981;-73
2021/01/16 09:17:58;;;;;;;;;;;;;;;-2.29;100.00;101597.41;5092656;28;20007;-73
2021/01/16 09:20:24;;;;;;;;;;;;;;;-2.21;100.00;101600.81;5092852;28;19924;-73
2021/01/16 09:22:50;;;;;;;;;;;;;;;-2.15;100.00;101599.84;5092838;28;20420;-73
2021/01/16 09:25:20;;;;;;;;;;;;;;;-2.13;100.00;101598.06;5092759;28;19931;-73
2021/01/16 09:27:46;;;;;;;;;;;;;;;-2.18;100.00;101590.13;5092802;28;19931;-73
2021/01/16 09:30:19;;;;;;;;;;;;;;;-2.16;100.00;101582.13;5092584;28;20432;-73
2021/01/16 09:32:45;;;;;;;;;;;;;;;-2.17;100.00;101586.56;5092972;28;20412;-73
2021/01/16 09:35:11;;;;;;;;;;;;;;;-2.18;100.00;101582.16;5092845;28;19924;-73
2021/01/16 09:37:37;;;;;;;;;;;;;;;-2.11;100.00;101582.94;5092595;28;19924;-73
2021/01/16 09:40:08;;;;;;;;;;;;;;;-2.09;100.00;101574.03;5092734;28;19935;-73
2021/01/16 09:42:44;;;;;;;;;;;;;;;-2.04;100.00;101571.31;5092386;28;19986;-73
2021/01/16 09:45:10;;;;;;;;;;;;;;;-1.98;100.00;101565.00;5092041;28;19932;-73
2021/01/16 09:47:46;;;;;;;;;;;;;;;-1.93;100.00;101564.03;5092513;28;19932;-73
2021/01/16 09:50:13;;;;;;;;;;;;;;;-1.83;100.00;101567.44;5092471;28;20016;-73
2021/01/16 09:52:46;;;;;;;;;;;;;;;-1.82;100.00;101563.84;5099150;28;19959;-73
2021/01/16 09:55:16;;;;;;;;;;;;;;;-1.79;100.00;101566.47;5112843;28;19923;-73
2021/01/16 09:57:42;;;;;;;;;;;;;;;-1.78;100.00;101559.38;5112539;28;19923;-73
2021/01/16 10:00:09;;;;;;;;;;;;;;;-1.78;100.00;101557.56;5111315;28;20494;-73
2021/01/16 10:02:38;;;;;;;;;;;;;;;-1.73;100.00;101547.72;5112544;28;19928;-73
2021/01/16 10:05:06;;;;;;;;;;;;;;;-1.68;100.00;101545.00;5112317;28;20015;-73
2021/01/16 10:07:38;;;;;;;;;;;;;;;-1.67;100.00;101538.78;5112165;28;20363;-73
2021/01/16 10:10:11;;;;;;;;;;;;;;;-1.71;100.00;101545.03;5112646;28;20288;-73
2021/01/16 10:12:39;;;;;;;;;;;;;;;-1.68;100.00;101537.00;5112514;28;19924;-73
2021/01/16 10:15:06;;;;;;;;;;;;;;;-1.58;100.00;101530.59;5112533;28;19930;-73
2021/01/16 10:17:33;;;;;;;;;;;;;;;-1.49;100.00;101534.91;5112233;28;20371;-74
2021/01/16 10:20:02;;;;;;;;;;;;;;;-1.40;100.00;101531.19;5112628;28;19966;-74
2021/01/16 10:22:30;;;;;;;;;;;;;;;-1.28;100.00;101530.06;5112261;28;19967;-73
2021/01/16 10:24:59;;;;;;;;;;;;;;;-1.31;100.00;101531.03;5112690;28;19949;-73
2021/01/16 10:27:41;;;;;;;;;;;;;;;-1.29;100.00;101520.34;5112483;28;19930;-73
2021/01/16 10:30:14;;;;;;;;;;;;;;;-1.37;100.00;101525.81;5112470;28;20000;-73
2021/01/16 10:32:40;;;;;;;;;;;;;;;-1.36;100.00;101516.91;5112399;28;20412;-73
2021/01/16 10:35:06;;;;;;;;;;;;;;;-1.25;100.00;101522.03;5112357;28;19931;-73
2021/01/16 10:37:40;;;;;;;;;;;;;;;-1.16;100.00;101505.88;5112083;28;19959;-73
2021/01/16 10:40:07;;;;;;;;;;;;;;;-1.29;100.00;101502.56;5112080;28;20323;-73
2021/01/16 10:42:40;;;;;;;;;;;;;;;-1.24;100.00;101507.81;5112184;28;20022;-73
2021/01/16 10:45:06;;;;;;;;;;;;;;;-1.26;100.00;101514.94;5110832;28;19947;-73
2021/01/16 10:47:33;;;;;;;;;;;;;;;-1.32;100.00;101509.72;5093979;28;19984;-73
2021/01/16 10:50:04;;;;;;;;;;;;;;;-1.28;100.00;101517.63;5112415;28;19923;-73
2021/01/16 10:52:29;;;;;;;;;;;;;;;-1.23;100.00;101509.53;5112270;28;19958;-73
2021/01/16 10:55:00;;;;;;;;;;;;;;;-1.27;100.00;101507.84;5114965;28;19977;-73
2021/01/16 10:57:27;;;;;;;;;;;;;;;-1.28;100.00;101496.31;5118420;28;19967;-74
2021/01/16 10:59:54;;;;;;;;;;;;;;;-1.29;100.00;101491.03;5099827;28;19928;-73
2021/01/16 11:02:34;;;;;;;;;;;;;;;-1.22;100.00;101490.84;5098294;28;20411;-74
2021/01/16 11:05:10;;;;;;;;;;;;;;;-1.20;100.00;101485.53;5098707;28;19947;-74
2021/01/16 11:07:40;;;;;;;;;;;;;;;-1.24;100.00;101482.03;5098327;28;20026;-74
2021/01/16 11:10:07;;;;;;;;;;;;;;;-1.33;100.00;101471.56;5098468;28;19974;-74
2021/01/16 11:12:33;;;;;;;;;;;;;;;-1.21;100.00;101476.63;5098463;28;19978;-73
2021/01/16 11:15:00;;;;;;;;;;;;;;;-1.13;100.00;101465.81;5098519;28;20305;-74
2021/01/16 11:17:44;;;;;;;;;;;;;;;-1.11;100.00;101455.13;5097694;28;20354;-73
2021/01/16 11:20:17;;;;;;;;;;;;;;;-1.11;100.00;101444.47;5097819;28;20361;-73
2021/01/16 11:22:45;;;;;;;;;;;;;;;-1.10;100.00;101435.56;5107570;28;19963;-74
2021/01/16 11:25:14;;;;;;;;;;;;;;;-1.09;100.00;101432.00;5114388;28;19966;-73
2021/01/16 11:27:57;;;;;;;;;;;;;;;-1.00;100.00;101434.47;5116346;28;19969;-73
2021/01/16 11:30:27;;;;;;;;;;;;;;;-0.94;100.00;101425.44;5110927;28;20412;-73
2021/01/16 11:32:54;;;;;;;;;;;;;;;-0.83;100.00;101428.75;5118098;28;20378;-75
2021/01/16 11:35:20;;;;;;;;;;;;;;;-0.76;100.00;101426.81;5116985;28;19967;-74
2021/01/16 11:37:47;;;;;;;;;;;;;;;-0.84;100.00;101424.34;5118060;28;20385;-74
2021/01/16 11:40:24;;;;;;;;;;;;;;;-0.98;100.00;101421.97;5105541;28;20389;-74
2021/01/16 11:42:51;;;;;;;;;;;;;;;-1.01;100.00;101417.56;5099845;28;19932;-74
2021/01/16 11:45:17;;;;;;;;;;;;;;;-1.03;100.00;101421.19;5095303;28;20015;-74
2021/01/16 11:47:48;;;;;;;;;;;;;;;-0.92;100.00;101404.94;5104033;28;19935;-74
2021/01/16 11:50:15;;;;;;;;;;;;;;;-0.87;100.00;101403.97;5118008;28;19931;-74
2021/01/16 11:52:41;;;;;;;;;;;;;;;-0.70;100.00;101403.53;5115357;28;20550;-74
2021/01/16 11:55:07;;;;;;;;;;;;;;;-0.25;100.00;101406.94;5103161;28;19956;-74
2021/01/16 11:57:34;;;;;;;;;;;;;;;-0.07;100.00;101397.56;5096803;28;19924;-74
2021/01/16 12:00:00;;;;;;;;;;;;;;;-0.10;100.00;101400.34;5097537;28;19962;-74
2021/01/16 12:02:27;;;;;;;;;;;;;;;-0.07;100.00;101389.56;5097519;28;19963;-74
2021/01/16 12:04:53;;;;;;;;;;;;;;;-0.03;100.00;101389.47;5097441;28;19955;-74
2021/01/16 12:07:19;;;;;;;;;;;;;;;0.07;100.00;101384.75;5093398;28;20450;-74
2021/01/16 12:09:46;;;;;;;;;;;;;;;0.03;100.00;101388.41;5093528;28;19936;-74
2021/01/16 12:12:12;;;;;;;;;;;;;;;-0.28;100.00;101383.88;5114494;28;20297;-74
2021/01/16 12:14:40;;;;;;;;;;;;;;;-0.68;100.00;101385.72;5114521;28;19938;-74
2021/01/16 12:17:06;;;;;;;;;;;;;;;-0.65;100.00;101376.78;5114091;28;19963;-74
2021/01/16 12:19:33;;;;;;;;;;;;;;;-0.77;100.00;101380.63;5114539;28;19967;-72
2021/01/16 12:22:02;;;;;;;;;;;;;;;-0.62;100.00;101382.03;5114522;28;19930;-73
2021/01/16 12:24:28;;;;;;;;;;;;;;;-0.47;100.00;101371.91;5114437;28;19974;-74
2021/01/16 12:26:57;;;;;;;;;;;;;;;-0.24;100.00;101369.53;5114298;28;19966;-73
2021/01/16 12:29:30;;;;;;;;;;;;;;;-0.08;100.00;101366.44;5114204;28;20026;-73
2021/01/16 12:32:04;;;;;;;;;;;;;;;-0.15;100.00;101359.53;5114444;28;19924;-73